East Greenville, Pennsylvania
Current Conditions -  °F | °C
As of 2:55 AM on Saturday 20 Dec 2014 (Local Time) from KUKT Reporting Station
Overcast Overcast  
Wind Chill: 27°   Ceiling: 2200
Heat Index: 32°   Visibility: 10mi
Dew Point: 23°   Wind: 5mph
Humidity: 69%   Direction: 30°NNE
Pressure: 30.21"   Gusts: NA
Location:  40.41°N, 75.5°W
Report Text: KUKT 200755Z AUTO 03004KT 10SM OVC022 00/M05 A3021 RMK AO1
Loading
Personal Weather Stations






























Interactive Weather Map New forecast layout! Learn more

10-Day Weather Forecast

Advertisements
Track Severe Weather on mobile